createdAt,value
2019-05-29T00:00:10.072Z,100347.45
2019-05-29T00:03:00.560Z,100346.62
2019-05-29T00:05:43.557Z,100350.23
2019-05-29T00:08:33.891Z,100350.41
2019-05-29T00:11:36.978Z,100356.13
2019-05-29T00:14:27.870Z,100364.28
2019-05-29T00:17:31.514Z,100369.02
2019-05-29T00:20:21.874Z,100368.92
2019-05-29T00:23:06.430Z,100375.27
2019-05-29T00:25:56.907Z,100373.62
2019-05-29T00:28:39.474Z,100379.54
2019-05-29T00:31:29.831Z,100386.22
2019-05-29T00:34:13.078Z,100381.55
2019-05-29T00:37:03.387Z,100390.17
2019-05-29T00:39:45.947Z,100384.05
2019-05-29T00:42:36.346Z,100397.38
2019-05-29T00:45:19.083Z,100391.45
2019-05-29T00:48:09.696Z,100402.49
2019-05-29T00:51:14.911Z,100401.73
2019-05-29T00:54:05.580Z,100401.80
2019-05-29T00:56:48.209Z,100408.89
2019-05-29T00:59:38.540Z,100409.05
2019-05-29T01:02:21.539Z,100407.39
2019-05-29T01:05:12.075Z,100410.64
2019-05-29T01:07:55.314Z,100415.97
2019-05-29T01:10:45.654Z,100419.66
2019-05-29T01:13:28.457Z,100418.98
2019-05-29T01:16:19.619Z,100426.91
2019-05-29T01:19:26.029Z,100430.98
2019-05-29T01:22:18.680Z,100434.66
2019-05-29T01:25:22.633Z,100433.83
2019-05-29T01:28:13.131Z,100439.92
2019-05-29T01:30:55.701Z,100439.19
2019-05-29T01:33:46.044Z,100443.28
2019-05-29T01:36:29.335Z,100446.01
2019-05-29T01:39:19.666Z,100445.27
2019-05-29T01:42:02.677Z,100450.59
2019-05-29T01:45:06.415Z,100453.38
2019-05-29T01:47:58.151Z,100454.36
2019-05-29T01:50:40.695Z,100460.13
2019-05-29T01:53:31.070Z,100466.84
2019-05-29T01:56:13.916Z,100461.20
2019-05-29T01:59:04.331Z,100468.22
2019-05-29T02:01:47.694Z,100467.63
2019-05-29T02:04:38.050Z,100473.83
2019-05-29T02:07:22.433Z,100472.97
2019-05-29T02:10:12.984Z,100477.63
2019-05-29T02:12:56.336Z,100482.01
2019-05-29T02:15:46.706Z,100481.32
2019-05-29T02:18:29.508Z,100483.08
2019-05-29T02:21:20.079Z,100493.19
2019-05-29T02:24:03.347Z,100491.96
2019-05-29T02:26:53.694Z,100495.54
2019-05-29T02:29:36.518Z,100495.69
2019-05-29T02:32:27.860Z,100499.77
2019-05-29T02:35:31.188Z,100499.32
2019-05-29T02:38:23.011Z,100500.27
2019-05-29T02:41:28.463Z,100498.09
2019-05-29T02:44:19.276Z,100500.05
2019-05-29T02:47:23.585Z,100508.88
2019-05-29T02:50:14.211Z,100510.23
2019-05-29T02:52:56.921Z,100522.48
2019-05-29T02:55:47.273Z,100525.23
2019-05-29T02:58:37.633Z,100521.38
2019-05-29T03:01:21.634Z,100520.20
2019-05-29T03:04:13.168Z,100527.70
2019-05-29T03:06:56.688Z,100527.89
2019-05-29T03:09:47.155Z,100533.72
2019-05-29T03:12:31.455Z,100536.95
2019-05-29T03:15:23.555Z,100540.52
2019-05-29T03:18:28.102Z,100542.83
2019-05-29T03:21:18.639Z,100540.67
2019-05-29T03:24:01.861Z,100546.91
2019-05-29T03:26:52.209Z,100545.23
2019-05-29T03:29:35.404Z,100543.61
2019-05-29T03:32:27.973Z,100546.36
2019-05-29T03:35:33.646Z,100556.89
2019-05-29T03:38:21.962Z,100555.64
2019-05-29T03:41:04.566Z,100559.57
2019-05-29T03:43:54.926Z,100562.06
2019-05-29T03:46:44.983Z,100562.25
2019-05-29T03:49:31.123Z,100572.25
2019-05-29T03:52:34.860Z,100566.88
2019-05-29T03:55:25.244Z,100565.19
2019-05-29T03:58:08.683Z,100570.88
2019-05-29T04:00:59.045Z,100567.70
2019-05-29T04:03:42.331Z,100580.41
2019-05-29T04:06:33.412Z,100574.38
2019-05-29T04:09:37.584Z,100584.52
2019-05-29T04:12:29.535Z,100585.73
2019-05-29T04:15:33.790Z,100594.45
2019-05-29T04:21:54.962Z,100594.72
2019-05-29T04:28:13.640Z,100599.47
2019-05-29T04:31:03.998Z,100609.59
2019-05-29T04:33:54.354Z,100611.00
2019-05-29T04:36:38.862Z,100611.84
2019-05-29T04:39:30.600Z,100617.45
2019-05-29T04:42:35.367Z,100619.08
2019-05-29T04:45:25.826Z,100629.12
2019-05-29T04:48:09.019Z,100632.00
2019-05-29T04:50:59.476Z,100639.79
2019-05-29T04:53:42.053Z,100640.63
2019-05-29T04:56:32.798Z,100647.48
2019-05-29T04:59:37.460Z,100653.47
2019-05-29T05:02:28.866Z,100660.58
2019-05-29T05:05:33.159Z,100655.52
2019-05-29T05:08:23.653Z,100659.13
2019-05-29T05:11:24.755Z,100665.77
2019-05-29T05:14:15.152Z,100665.50
2019-05-29T05:16:57.791Z,100667.06
2019-05-29T05:22:57.777Z,100681.01
2019-05-29T05:25:48.185Z,100678.75
2019-05-29T05:28:32.174Z,100685.98
2019-05-29T05:31:15.008Z,100689.14
2019-05-29T05:34:05.521Z,100695.44
2019-05-29T05:36:49.035Z,100697.19
2019-05-29T05:39:39.447Z,100699.31
2019-05-29T05:42:22.701Z,100701.78
2019-05-29T05:45:13.417Z,100705.84
2019-05-29T05:47:57.990Z,100704.39
2019-05-29T05:50:48.145Z,100709.91
2019-05-29T05:53:31.316Z,100716.88
2019-05-29T05:56:21.846Z,100720.41
2019-05-29T05:59:04.503Z,100722.81
2019-05-29T06:01:54.855Z,100722.59
2019-05-29T06:04:38.015Z,100723.06
2019-05-29T06:07:28.411Z,100723.54
2019-05-29T06:10:11.740Z,100724.87
2019-05-29T06:16:32.933Z,100732.20
2019-05-29T06:19:23.459Z,100735.30
2019-05-29T06:22:06.130Z,100737.96
2019-05-29T06:24:56.548Z,100738.10
2019-05-29T06:27:41.243Z,100737.09
2019-05-29T06:30:52.182Z,100743.44
2019-05-29T06:33:35.689Z,100743.33
2019-05-29T06:36:26.047Z,100748.66
2019-05-29T06:39:08.900Z,100749.77
2019-05-29T06:41:59.265Z,100748.09
2019-05-29T06:44:44.924Z,100755.80
2019-05-29T06:47:36.253Z,100751.77
2019-05-29T06:50:39.438Z,100754.30
2019-05-29T06:53:29.985Z,100756.95
2019-05-29T06:56:13.543Z,100756.67
2019-05-29T06:59:04.046Z,100760.62
2019-05-29T07:01:47.671Z,100762.84
2019-05-29T07:04:38.333Z,100754.37
2019-05-29T07:07:44.399Z,100769.07
2019-05-29T07:10:36.235Z,100760.63
2019-05-29T07:13:41.796Z,100767.61
2019-05-29T07:16:43.906Z,100770.97
2019-05-29T07:19:49.046Z,100777.70
2019-05-29T07:22:28.396Z,100771.77
2019-05-29T07:25:11.384Z,100772.63
2019-05-29T07:28:01.757Z,100777.73
2019-05-29T07:31:00.915Z,100780.34
2019-05-29T07:33:57.103Z,100779.66
2019-05-29T07:36:48.175Z,100785.91
2019-05-29T07:39:51.813Z,100786.52
2019-05-29T07:42:47.174Z,100797.48
2019-05-29T07:45:46.185Z,100795.77
2019-05-29T07:48:36.541Z,100802.11
2019-05-29T07:51:19.090Z,100800.15
2019-05-29T07:54:09.530Z,100806.20
2019-05-29T07:56:52.836Z,100804.12
2019-05-29T07:59:43.216Z,100803.88
2019-05-29T08:02:26.645Z,100810.23
2019-05-29T08:05:17.104Z,100812.77
2019-05-29T08:08:07.470Z,100813.16
2019-05-29T08:10:51.575Z,100817.92
2019-05-29T08:13:41.960Z,100816.91
2019-05-29T08:16:46.058Z,100823.55
2019-05-29T08:19:36.528Z,100829.31
2019-05-29T08:22:33.327Z,100821.28
2019-05-29T08:25:11.249Z,100826.61
2019-05-29T08:27:54.698Z,100826.23
2019-05-29T08:30:59.877Z,100822.68
2019-05-29T08:33:51.101Z,100821.94
2019-05-29T08:36:33.932Z,100826.48
2019-05-29T08:39:35.235Z,100829.92
2019-05-29T08:42:28.600Z,100836.23
2019-05-29T08:45:19.184Z,100837.39
2019-05-29T08:48:02.148Z,100835.00
2019-05-29T08:50:52.521Z,100835.02
2019-05-29T08:53:35.691Z,100836.00
2019-05-29T08:56:26.081Z,100837.98
2019-05-29T08:59:09.269Z,100836.19
2019-05-29T09:01:59.611Z,100827.97
2019-05-29T09:04:43.076Z,100832.58
2019-05-29T09:07:33.513Z,100831.14
2019-05-29T09:10:16.383Z,100831.59
2019-05-29T09:13:06.764Z,100838.26
2019-05-29T09:15:49.533Z,100838.97
2019-05-29T09:18:39.903Z,100831.81
2019-05-29T09:21:25.945Z,100838.77
2019-05-29T09:24:16.346Z,100836.79
2019-05-29T09:27:19.260Z,100829.16
2019-05-29T09:30:30.078Z,100831.70
2019-05-29T09:33:32.713Z,100832.78
2019-05-29T09:36:24.590Z,100833.09
2019-05-29T09:39:27.473Z,100834.16
2019-05-29T09:42:19.173Z,100831.72
2019-05-29T09:45:23.438Z,100833.11
2019-05-29T09:48:13.904Z,100841.39
2019-05-29T09:50:57.146Z,100834.97
2019-05-29T09:53:47.671Z,100842.27
2019-05-29T09:56:38.107Z,100847.47
2019-05-29T09:59:21.289Z,100842.02
2019-05-29T10:02:11.681Z,100842.86
2019-05-29T10:04:56.507Z,100845.91
2019-05-29T10:07:47.063Z,100844.03
2019-05-29T10:10:29.771Z,100845.25
2019-05-29T10:13:20.157Z,100848.52
2019-05-29T10:16:10.539Z,100844.56
2019-05-29T10:18:42.013Z,100846.19
2019-05-29T10:21:40.198Z,100846.58
2019-05-29T10:24:37.536Z,100844.66
2019-05-29T10:27:27.948Z,100846.34
2019-05-29T10:30:31.294Z,100851.64
2019-05-29T10:33:21.678Z,100844.69
2019-05-29T10:36:05.102Z,100850.69
2019-05-29T10:38:55.539Z,100842.06
2019-05-29T10:41:38.949Z,100846.59
2019-05-29T10:44:29.367Z,100850.34
2019-05-29T10:47:12.827Z,100839.24
2019-05-29T10:50:03.268Z,100842.58
2019-05-29T10:53:06.177Z,100838.94
2019-05-29T10:55:57.522Z,100837.83
2019-05-29T10:58:49.767Z,100834.34
2019-05-29T11:01:32.710Z,100837.37
2019-05-29T11:04:26.462Z,100835.58
2019-05-29T11:07:16.834Z,100839.39
2019-05-29T11:10:00.029Z,100835.16
2019-05-29T11:12:50.730Z,100839.44
2019-05-29T11:15:33.855Z,100831.89
2019-05-29T11:18:24.260Z,100828.11
2019-05-29T11:21:07.771Z,100836.13
2019-05-29T11:23:58.348Z,100827.02
2019-05-29T11:26:41.382Z,100826.61
2019-05-29T11:29:31.806Z,100824.34
2019-05-29T11:32:15.282Z,100829.48
2019-05-29T11:35:06.234Z,100834.25
2019-05-29T11:37:50.408Z,100827.50
2019-05-29T11:40:41.034Z,100821.36
2019-05-29T11:43:24.238Z,100813.82
2019-05-29T11:46:14.852Z,100819.89
2019-05-29T11:48:57.551Z,100821.92
2019-05-29T11:51:48.019Z,100821.26
2019-05-29T11:54:31.481Z,100821.52
2019-05-29T11:57:21.893Z,100816.92
2019-05-29T12:00:24.607Z,100817.56
2019-05-29T12:03:15.185Z,100818.47
2019-05-29T12:05:57.863Z,100815.77
2019-05-29T12:08:48.236Z,100807.31
2019-05-29T12:11:38.661Z,100810.00
2019-05-29T12:14:20.287Z,100810.31
2019-05-29T12:20:29.118Z,100798.05
2019-05-29T12:23:25.573Z,100802.31
2019-05-29T12:26:22.737Z,100790.25
2019-05-29T12:29:11.883Z,100794.21
2019-05-29T12:32:14.197Z,100792.13
2019-05-29T12:35:23.664Z,100788.94
2019-05-29T12:38:06.479Z,100777.56
2019-05-29T12:40:57.625Z,100787.95
2019-05-29T12:44:01.692Z,100789.05
2019-05-29T12:46:53.403Z,100794.16
2019-05-29T12:49:57.673Z,100784.28
2019-05-29T12:52:48.206Z,100787.86
2019-05-29T12:55:31.363Z,100785.75
2019-05-29T12:58:21.837Z,100786.45
2019-05-29T13:01:05.174Z,100788.66
2019-05-29T13:03:56.630Z,100785.33
2019-05-29T13:07:00.787Z,100778.27
2019-05-29T13:09:51.154Z,100772.90
2019-05-29T13:12:33.720Z,100779.76
2019-05-29T13:15:34.840Z,100767.58
2019-05-29T13:18:25.264Z,100768.64
2019-05-29T13:21:07.884Z,100764.95
2019-05-29T13:24:00.928Z,100765.22
2019-05-29T13:27:03.651Z,100763.54
2019-05-29T13:29:57.145Z,100759.02
2019-05-29T13:33:03.109Z,100755.23
2019-05-29T13:36:04.467Z,100756.88
2019-05-29T13:38:55.980Z,100759.59
2019-05-29T13:42:05.771Z,100757.10
2019-05-29T13:44:52.641Z,100752.38
2019-05-29T13:47:56.958Z,100756.91
2019-05-29T13:50:48.875Z,100743.41
2019-05-29T13:54:02.504Z,100741.34
2019-05-29T13:56:44.656Z,100736.49
2019-05-29T13:59:27.735Z,100738.14
2019-05-29T14:02:18.156Z,100729.88
2019-05-29T14:05:00.779Z,100739.84
2019-05-29T14:07:51.191Z,100734.44
2019-05-29T14:10:34.566Z,100737.35
2019-05-29T14:13:24.995Z,100737.36
2019-05-29T14:16:08.483Z,100738.34
2019-05-29T14:19:00.712Z,100735.31
2019-05-29T14:22:05.051Z,100730.56
2019-05-29T14:24:55.566Z,100736.77
2019-05-29T14:27:38.326Z,100733.48
2019-05-29T14:30:28.831Z,100734.00
2019-05-29T14:33:14.902Z,100728.92
2019-05-29T14:36:05.841Z,100727.25
2019-05-29T14:39:10.002Z,100730.22
2019-05-29T14:42:01.615Z,100725.03
2019-05-29T14:45:06.110Z,100719.83
2019-05-29T14:47:56.611Z,100721.83
2019-05-29T14:50:39.486Z,100718.81
2019-05-29T14:53:29.899Z,100723.76
2019-05-29T14:56:12.804Z,100719.83
2019-05-29T14:59:03.688Z,100717.38
2019-05-29T15:02:19.845Z,100718.12
2019-05-29T15:05:00.222Z,100715.66
2019-05-29T15:07:43.163Z,100712.41
2019-05-29T15:10:33.534Z,100717.20
2019-05-29T15:13:16.992Z,100709.52
2019-05-29T15:16:09.145Z,100717.66
2019-05-29T15:19:13.096Z,100713.69
2019-05-29T15:22:04.959Z,100715.89
2019-05-29T15:25:18.536Z,100721.37
2019-05-29T15:28:01.369Z,100716.80
2019-05-29T15:30:45.173Z,100716.33
2019-05-29T15:33:28.035Z,100718.94
2019-05-29T15:36:18.479Z,100717.50
2019-05-29T15:39:20.090Z,100720.66
2019-05-29T15:42:10.884Z,100719.28
2019-05-29T15:45:15.959Z,100724.20
2019-05-29T15:48:06.980Z,100724.36
2019-05-29T15:51:11.444Z,100725.84
2019-05-29T15:54:01.989Z,100727.52
2019-05-29T15:56:45.217Z,100720.34
2019-05-29T15:59:35.647Z,100723.28
2019-05-29T16:02:18.948Z,100724.23
2019-05-29T16:05:11.171Z,100718.53
2019-05-29T16:08:14.485Z,100717.32
2019-05-29T16:11:05.155Z,100721.03
2019-05-29T16:13:47.688Z,100722.17
2019-05-29T16:16:38.103Z,100717.57
2019-05-29T16:19:22.483Z,100710.34
2019-05-29T16:22:14.154Z,100711.92
2019-05-29T16:25:18.993Z,100705.59
2019-05-29T16:27:50.722Z,100699.75
2019-05-29T16:30:41.150Z,100701.84
2019-05-29T16:33:31.694Z,100705.95
2019-05-29T16:36:14.606Z,100697.94
2019-05-29T16:38:46.120Z,100706.62
2019-05-29T16:41:48.881Z,100704.16
2019-05-29T16:44:39.439Z,100706.17
2019-05-29T16:47:29.871Z,100709.72
2019-05-29T16:50:14.761Z,100708.33
2019-05-29T16:53:05.443Z,100704.69
2019-05-29T16:55:53.668Z,100709.81
2019-05-29T16:58:41.003Z,100708.04
2019-05-29T17:01:25.831Z,100709.42
2019-05-29T17:04:16.194Z,100707.53
2019-05-29T17:07:00.421Z,100704.00
2019-05-29T17:09:50.216Z,100711.69
2019-05-29T17:12:33.633Z,100708.14
2019-05-29T17:15:24.780Z,100711.09
2019-05-29T17:18:28.685Z,100713.04
2019-05-29T17:21:20.669Z,100710.73
2019-05-29T17:24:24.917Z,100715.98
2019-05-29T17:27:16.524Z,100707.24
2019-05-29T17:30:21.112Z,100711.11
2019-05-29T17:33:11.800Z,100712.10
2019-05-29T17:35:55.175Z,100705.66
2019-05-29T17:38:45.562Z,100705.49
2019-05-29T17:41:28.487Z,100698.28
2019-05-29T17:44:19.416Z,100708.48
2019-05-29T17:47:23.990Z,100709.09
2019-05-29T17:50:18.065Z,100704.09
2019-05-29T17:53:20.002Z,100713.17
2019-05-29T17:56:23.330Z,100709.38
2019-05-29T17:59:15.921Z,100708.99
2019-05-29T18:02:06.359Z,100714.42
2019-05-29T18:04:48.929Z,100710.89
2019-05-29T18:07:39.351Z,100716.02
2019-05-29T18:10:24.212Z,100715.11
2019-05-29T18:13:16.889Z,100713.70
2019-05-29T18:16:21.547Z,100717.83
2019-05-29T18:19:12.012Z,100712.48
2019-05-29T18:21:54.641Z,100716.23
2019-05-29T18:24:46.043Z,100718.47
2019-05-29T18:27:29.197Z,100713.64
2019-05-29T18:30:20.205Z,100714.89
2019-05-29T18:33:24.928Z,100714.84
2019-05-29T18:36:15.443Z,100707.89
2019-05-29T18:38:58.147Z,100711.77
2019-05-29T18:41:48.543Z,100708.87
2019-05-29T18:44:31.357Z,100713.20
2019-05-29T18:47:22.929Z,100714.35
2019-05-29T18:50:27.560Z,100715.81
2019-05-29T18:53:18.100Z,100716.41
2019-05-29T18:56:01.658Z,100719.58
2019-05-29T18:58:52.138Z,100714.50
2019-05-29T19:01:35.147Z,100709.37
2019-05-29T19:04:25.601Z,100714.22
2019-05-29T19:07:08.596Z,100717.09
2019-05-29T19:09:59.151Z,100714.19
2019-05-29T19:12:49.669Z,100720.89
2019-05-29T19:15:40.081Z,100715.09
2019-05-29T19:18:24.024Z,100728.59
2019-05-29T19:21:14.671Z,100727.71
2019-05-29T19:23:57.517Z,100731.91
2019-05-29T19:26:47.980Z,100736.58
2019-05-29T19:29:31.182Z,100732.66
2019-05-29T19:32:23.229Z,100736.31
2019-05-29T19:35:27.592Z,100737.67
2019-05-29T19:38:18.111Z,100743.98
2019-05-29T19:41:01.200Z,100746.53
2019-05-29T19:43:51.611Z,100744.34
2019-05-29T19:46:52.594Z,100752.31
2019-05-29T19:49:27.292Z,100756.78
2019-05-29T19:52:31.644Z,100755.09
2019-05-29T19:55:22.020Z,100754.63
2019-05-29T19:58:05.062Z,100756.25
2019-05-29T20:00:55.432Z,100764.99
2019-05-29T20:03:38.725Z,100766.42
2019-05-29T20:09:55.322Z,100767.34
2019-05-29T20:12:45.890Z,100772.30
2019-05-29T20:15:29.883Z,100773.95
2019-05-29T20:18:20.393Z,100775.95
2019-05-29T20:21:03.574Z,100775.66
2019-05-29T20:23:53.967Z,100773.54
2019-05-29T20:26:37.161Z,100772.79
2019-05-29T20:29:27.696Z,100767.27
2019-05-29T20:32:11.029Z,100776.08
2019-05-29T20:35:01.492Z,100771.97
2019-05-29T20:37:44.386Z,100774.03
2019-05-29T20:40:35.172Z,100783.50
2019-05-29T20:43:39.859Z,100779.87
2019-05-29T20:46:30.456Z,100773.97
2019-05-29T20:49:13.201Z,100774.70
2019-05-29T20:52:03.615Z,100768.16
2019-05-29T20:54:47.172Z,100770.83
2019-05-29T20:57:38.109Z,100777.23
2019-05-29T21:00:42.506Z,100778.05
2019-05-29T21:03:34.249Z,100780.04
2019-05-29T21:06:38.628Z,100767.89
2019-05-29T21:09:29.140Z,100780.71
2019-05-29T21:12:12.360Z,100771.86
2019-05-29T21:15:02.839Z,100771.87
2019-05-29T21:17:46.283Z,100773.13
2019-05-29T21:20:36.711Z,100777.53
2019-05-29T21:23:40.410Z,100781.48
2019-05-29T21:26:30.819Z,100772.23
2019-05-29T21:29:14.348Z,100775.85
2019-05-29T21:32:04.853Z,100779.23
2019-05-29T21:34:47.570Z,100780.45
2019-05-29T21:37:38.295Z,100773.70
2019-05-29T21:40:42.559Z,100777.84
2019-05-29T21:43:33.010Z,100779.13
2019-05-29T21:46:15.835Z,100780.30
2019-05-29T21:49:06.471Z,100781.41
2019-05-29T21:51:49.060Z,100774.48
2019-05-29T21:54:39.472Z,100777.34
2019-05-29T21:57:22.971Z,100774.27
2019-05-29T22:00:24.507Z,100780.95
2019-05-29T22:03:14.907Z,100777.03
2019-05-29T22:05:58.413Z,100782.69
2019-05-29T22:08:48.877Z,100787.47
2019-05-29T22:11:31.707Z,100781.61
2019-05-29T22:14:22.208Z,100772.97
2019-05-29T22:17:05.402Z,100774.86
2019-05-29T22:19:48.257Z,100772.02
2019-05-29T22:22:38.725Z,100774.86
2019-05-29T22:25:22.379Z,100768.80
2019-05-29T22:28:12.780Z,100769.02
2019-05-29T22:31:02.831Z,100766.86
2019-05-29T22:33:53.445Z,100774.33
2019-05-29T22:36:36.488Z,100769.20
2019-05-29T22:39:26.904Z,100770.59
2019-05-29T22:42:09.542Z,100766.41
2019-05-29T22:44:59.948Z,100759.25
2019-05-29T22:48:03.168Z,100763.66
2019-05-29T22:50:53.919Z,100763.73
2019-05-29T22:53:57.947Z,100762.98
2019-05-29T22:56:48.399Z,100760.49
2019-05-29T22:59:32.444Z,100761.41
2019-05-29T23:02:22.957Z,100753.95
2019-05-29T23:05:06.154Z,100750.68
2019-05-29T23:07:56.512Z,100756.27
2019-05-29T23:10:39.960Z,100750.41
2019-05-29T23:13:30.343Z,100748.15
2019-05-29T23:16:13.315Z,100744.25
2019-05-29T23:18:56.463Z,100747.37
2019-05-29T23:21:46.892Z,100750.50
2019-05-29T23:24:30.408Z,100745.97
2019-05-29T23:27:20.810Z,100748.77
2019-05-29T23:30:03.553Z,100753.28
2019-05-29T23:32:54.905Z,100747.69
2019-05-29T23:35:59.096Z,100749.78
2019-05-29T23:38:49.522Z,100738.91
2019-05-29T23:41:32.340Z,100746.14
2019-05-29T23:44:22.800Z,100740.23
2019-05-29T23:47:06.021Z,100738.17
2019-05-29T23:49:57.549Z,100731.95
2019-05-29T23:53:01.835Z,100731.95
2019-05-29T23:55:53.895Z,100734.36
2019-05-29T23:58:57.577Z,100730.91
